createdAt,value
2023-10-10T00:02:36.068Z,61.17
2023-10-10T00:06:53.416Z,58.10
2023-10-10T00:11:19.922Z,62.33
2023-10-10T00:15:40.248Z,52.42
2023-10-10T00:20:17.107Z,50.53
2023-10-10T00:24:34.399Z,53.00
2023-10-10T00:28:55.834Z,47.17
2023-10-10T00:33:17.619Z,59.33
2023-10-10T00:37:36.204Z,56.72
2023-10-10T00:41:55.998Z,47.55
2023-10-10T00:46:13.232Z,46.97
2023-10-10T00:50:35.546Z,47.63
2023-10-10T00:54:53.988Z,42.03
2023-10-10T00:59:12.308Z,42.60
2023-10-10T01:03:32.147Z,47.85
2023-10-10T01:07:49.652Z,109.30
2023-10-10T01:12:07.280Z,116.07
2023-10-10T01:16:25.949Z,115.75
2023-10-10T01:20:47.046Z,80.97
2023-10-10T01:25:24.852Z,81.07
2023-10-10T01:29:42.289Z,136.25
2023-10-10T01:34:01.369Z,89.93
2023-10-10T01:38:33.769Z,199.85
2023-10-10T01:43:00.529Z,121.70
2023-10-10T01:47:26.965Z,81.00
2023-10-10T01:51:44.898Z,135.90
2023-10-10T01:56:08.205Z,80.33
2023-10-10T02:00:25.739Z,82.43
2023-10-10T02:04:44.454Z,104.88
2023-10-10T02:09:28.660Z,149.50
2023-10-10T02:13:48.663Z,76.30
2023-10-10T02:18:07.864Z,74.97
2023-10-10T02:22:34.793Z,76.97
2023-10-10T02:26:54.955Z,66.50
2023-10-10T02:31:14.203Z,66.75
2023-10-10T02:35:43.688Z,64.78
2023-10-10T02:40:09.130Z,68.95
2023-10-10T02:44:35.693Z,89.95
2023-10-10T02:48:57.024Z,65.80
2023-10-10T02:53:16.639Z,61.10
2023-10-10T02:57:40.248Z,71.45
2023-10-10T03:01:58.770Z,55.72
2023-10-10T03:06:17.862Z,78.13
2023-10-10T03:10:40.365Z,51.05
2023-10-10T03:15:18.682Z,56.60
2023-10-10T03:19:42.540Z,111.07
2023-10-10T03:24:08.686Z,93.95
2023-10-10T03:28:29.072Z,213.38
2023-10-10T03:33:09.566Z,91.68
2023-10-10T03:37:27.031Z,69.32
2023-10-10T03:42:03.162Z,191.15
2023-10-10T03:46:39.046Z,75.03
2023-10-10T03:51:15.151Z,57.30
2023-10-10T03:55:57.629Z,60.70
2023-10-10T04:00:34.234Z,106.55
2023-10-10T04:05:25.825Z,111.20
2023-10-10T04:10:03.572Z,62.55
2023-10-10T04:14:39.421Z,96.90
2023-10-10T04:19:15.419Z,61.35
2023-10-10T04:23:51.381Z,62.25
2023-10-10T04:28:27.635Z,45.47
2023-10-10T04:33:03.656Z,47.03
2023-10-10T04:37:39.736Z,41.72
2023-10-10T04:42:32.266Z,38.53
2023-10-10T04:47:08.187Z,53.67
2023-10-10T04:51:44.219Z,56.92
2023-10-10T04:56:20.291Z,82.00
2023-10-10T05:00:56.220Z,50.15
2023-10-10T05:05:32.621Z,78.38
2023-10-10T05:10:09.105Z,81.65
2023-10-10T05:14:46.190Z,56.08
2023-10-10T05:19:22.236Z,42.75
2023-10-10T05:23:43.938Z,49.65
2023-10-10T05:28:01.212Z,44.50
2023-10-10T05:32:19.779Z,44.80
2023-10-10T05:36:37.186Z,50.70
2023-10-10T05:40:55.510Z,53.75
2023-10-10T05:45:15.060Z,50.03
2023-10-10T05:49:33.761Z,44.20
2023-10-10T05:53:50.975Z,43.55
2023-10-10T05:58:09.717Z,52.97
2023-10-10T06:02:28.565Z,45.05
2023-10-10T06:06:47.325Z,53.00
2023-10-10T06:11:07.805Z,51.63
2023-10-10T06:15:25.482Z,72.03
2023-10-10T06:19:46.692Z,48.53
2023-10-10T06:24:04.213Z,52.42
2023-10-10T06:28:24.324Z,58.88
2023-10-10T06:32:41.562Z,51.60
2023-10-10T06:36:58.879Z,54.42
2023-10-10T06:41:19.372Z,43.22
2023-10-10T06:45:38.187Z,74.22
2023-10-10T06:49:57.240Z,45.67
2023-10-10T06:54:29.199Z,44.13
2023-10-10T06:58:46.909Z,45.80
2023-10-10T07:03:04.616Z,49.95
2023-10-10T07:07:22.900Z,41.25
2023-10-10T07:11:40.740Z,36.97
2023-10-10T07:15:59.530Z,34.08
2023-10-10T07:20:37.558Z,44.38
2023-10-10T07:25:08.147Z,46.28
2023-10-10T07:29:51.640Z,39.58
2023-10-10T07:34:16.681Z,30.63
2023-10-10T07:38:36.614Z,31.08
2023-10-10T07:42:59.526Z,36.67
2023-10-10T07:47:16.996Z,33.80
2023-10-10T07:51:36.058Z,33.25
2023-10-10T07:55:59.365Z,34.20
2023-10-10T08:00:18.690Z,34.15
2023-10-10T08:04:38.792Z,30.50
2023-10-10T08:09:19.980Z,29.38
2023-10-10T08:13:37.239Z,28.63
2023-10-10T08:17:56.268Z,30.73
2023-10-10T08:22:14.269Z,31.27
2023-10-10T08:26:40.163Z,28.20
2023-10-10T08:31:01.098Z,33.17
2023-10-10T08:35:18.388Z,29.73
2023-10-10T08:39:40.607Z,29.17
2023-10-10T08:44:03.066Z,30.60
2023-10-10T08:48:27.407Z,28.70
2023-10-10T08:52:45.179Z,29.13
2023-10-10T08:57:04.398Z,27.55
2023-10-10T09:01:23.271Z,32.05
2023-10-10T09:10:07.665Z,27.85
2023-10-10T09:14:42.469Z,28.25
2023-10-10T09:19:09.683Z,31.15
2023-10-10T09:23:29.694Z,26.42
2023-10-10T09:28:09.078Z,28.83
2023-10-10T09:32:43.921Z,25.05
2023-10-10T09:37:06.810Z,24.45
2023-10-10T09:41:33.297Z,24.85
2023-10-10T09:46:11.843Z,20.67
2023-10-10T09:50:35.413Z,25.90
2023-10-10T09:54:56.793Z,22.65
2023-10-10T09:59:17.336Z,22.65
2023-10-10T10:03:43.114Z,17.85
2023-10-10T10:08:23.132Z,17.10
2023-10-10T10:13:14.643Z,21.67
2023-10-10T10:17:49.970Z,18.75
2023-10-10T10:22:14.849Z,15.63
2023-10-10T10:26:43.568Z,17.50
2023-10-10T10:31:06.879Z,16.63
2023-10-10T10:35:45.523Z,17.15
2023-10-10T10:40:14.607Z,17.67
2023-10-10T10:49:08.860Z,17.83
2023-10-10T10:53:36.620Z,16.38
2023-10-10T10:58:15.499Z,17.35
2023-10-10T11:02:36.462Z,15.02
2023-10-10T11:07:04.624Z,14.00
2023-10-10T11:11:32.419Z,14.52
2023-10-10T11:15:50.171Z,14.97
2023-10-10T11:20:30.290Z,15.10
2023-10-10T11:24:58.926Z,13.95
2023-10-10T11:29:28.539Z,12.77
2023-10-10T11:33:49.895Z,13.85
2023-10-10T11:38:10.190Z,17.75
2023-10-10T11:42:36.559Z,15.73
2023-10-10T11:47:04.098Z,12.60
2023-10-10T11:51:36.997Z,14.60
2023-10-10T11:56:03.499Z,11.35
2023-10-10T12:00:27.989Z,12.98
2023-10-10T12:04:48.807Z,11.27
2023-10-10T12:09:06.329Z,15.30
2023-10-10T12:13:45.296Z,12.48
2023-10-10T12:18:02.577Z,12.45
2023-10-10T12:22:19.973Z,14.90
2023-10-10T12:26:43.416Z,10.70
2023-10-10T12:31:04.744Z,11.15
2023-10-10T12:35:27.201Z,10.95
2023-10-10T12:39:45.644Z,9.85
2023-10-10T12:44:07.414Z,9.77
2023-10-10T12:48:25.952Z,9.68
2023-10-10T12:52:47.610Z,11.65
2023-10-10T12:57:14.647Z,11.68
2023-10-10T13:01:34.271Z,12.05
2023-10-10T13:05:59.689Z,11.48
2023-10-10T13:10:17.327Z,11.55
2023-10-10T13:14:35.317Z,13.57
2023-10-10T13:18:55.087Z,9.73
2023-10-10T13:23:13.261Z,14.50
2023-10-10T13:27:30.642Z,15.88
2023-10-10T13:31:48.504Z,20.33
2023-10-10T13:36:13.139Z,21.73
2023-10-10T13:40:44.953Z,14.40
2023-10-10T13:45:12.125Z,18.40
2023-10-10T13:49:30.277Z,17.77
2023-10-10T13:53:47.835Z,22.13
2023-10-10T13:58:08.478Z,19.45
2023-10-10T14:02:26.811Z,18.70
2023-10-10T14:06:48.864Z,19.13
2023-10-10T14:11:06.547Z,18.65
2023-10-10T14:15:24.061Z,12.07
2023-10-10T14:19:41.396Z,11.55
2023-10-10T14:24:12.405Z,10.98
2023-10-10T14:28:29.970Z,14.77
2023-10-10T14:32:47.593Z,9.90
2023-10-10T14:37:16.669Z,11.07
2023-10-10T14:41:44.586Z,14.52
2023-10-10T14:50:25.682Z,10.90
2023-10-10T14:54:50.200Z,14.75
2023-10-10T14:59:08.721Z,15.32
2023-10-10T15:03:26.976Z,16.17
2023-10-10T15:07:45.932Z,11.90
2023-10-10T15:12:03.447Z,11.00
2023-10-10T15:16:22.938Z,16.83
2023-10-10T15:20:46.380Z,13.50
2023-10-10T15:25:05.576Z,13.38
2023-10-10T15:29:23.602Z,13.90
2023-10-10T15:33:50.179Z,12.20
2023-10-10T15:38:12.209Z,13.27
2023-10-10T15:42:29.946Z,13.57
2023-10-10T15:46:47.579Z,15.27
2023-10-10T15:51:09.637Z,12.63
2023-10-10T15:55:27.713Z,18.25
2023-10-10T15:59:46.092Z,19.03
2023-10-10T16:04:18.646Z,16.02
2023-10-10T16:08:37.895Z,10.88
2023-10-10T16:12:56.872Z,12.80
2023-10-10T16:17:17.285Z,17.83
2023-10-10T16:21:39.229Z,15.73
2023-10-10T16:25:57.569Z,19.08
2023-10-10T16:30:18.183Z,16.02
2023-10-10T16:34:38.506Z,19.00
2023-10-10T16:38:58.492Z,13.73
2023-10-10T16:43:18.174Z,14.57
2023-10-10T16:47:37.944Z,15.70
2023-10-10T16:51:55.671Z,17.27
2023-10-10T16:56:16.398Z,15.77
2023-10-10T17:00:36.067Z,16.90
2023-10-10T17:04:54.932Z,13.70
2023-10-10T17:09:14.607Z,16.27
2023-10-10T17:13:40.576Z,17.17
2023-10-10T17:17:58.436Z,16.48
2023-10-10T17:22:18.058Z,17.93
2023-10-10T17:26:35.525Z,15.43
2023-10-10T17:30:59.983Z,18.15
2023-10-10T17:35:18.858Z,18.92
2023-10-10T17:39:37.279Z,16.02
2023-10-10T17:43:55.803Z,16.37
2023-10-10T17:48:16.230Z,14.63
2023-10-10T17:52:33.672Z,14.60
2023-10-10T17:56:50.956Z,17.23
2023-10-10T18:01:10.978Z,16.48
2023-10-10T18:05:35.718Z,18.55
2023-10-10T18:09:55.933Z,20.77
2023-10-10T18:14:16.459Z,22.00
2023-10-10T18:18:36.489Z,23.80
2023-10-10T18:22:54.232Z,19.75
2023-10-10T18:27:12.489Z,19.40
2023-10-10T18:31:35.067Z,20.67
2023-10-10T18:35:52.482Z,22.15
2023-10-10T18:40:18.562Z,24.42
2023-10-10T18:44:37.303Z,22.70
2023-10-10T18:48:58.503Z,22.88
2023-10-10T18:53:15.851Z,22.88
2023-10-10T18:57:34.819Z,17.58
2023-10-10T19:01:52.371Z,14.82
2023-10-10T19:06:09.940Z,18.90
2023-10-10T19:10:27.964Z,19.50
2023-10-10T19:14:45.780Z,21.23
2023-10-10T19:19:06.559Z,18.63
2023-10-10T19:23:24.159Z,19.55
2023-10-10T19:27:41.609Z,15.02
2023-10-10T19:32:00.510Z,15.40
2023-10-10T19:40:34.944Z,19.02
2023-10-10T19:44:52.374Z,15.07
2023-10-10T19:49:09.833Z,13.93
2023-10-10T19:53:30.040Z,14.52
2023-10-10T19:57:48.496Z,14.23
2023-10-10T20:02:07.973Z,17.25
2023-10-10T20:06:26.031Z,14.43
2023-10-10T20:10:48.940Z,16.27
2023-10-10T20:15:06.966Z,16.73
2023-10-10T20:19:24.423Z,12.77
2023-10-10T20:23:43.524Z,15.43
2023-10-10T20:28:01.299Z,11.73
2023-10-10T20:32:18.836Z,13.38
2023-10-10T20:36:38.010Z,9.88
2023-10-10T20:40:57.392Z,16.05
2023-10-10T20:45:16.054Z,13.55
2023-10-10T20:49:33.552Z,15.02
2023-10-10T20:53:51.049Z,11.07
2023-10-10T20:58:11.932Z,17.48
2023-10-10T21:02:29.606Z,11.25
2023-10-10T21:06:47.834Z,11.77
2023-10-10T21:11:09.452Z,15.77
2023-10-10T21:15:28.144Z,13.52
2023-10-10T21:19:45.425Z,10.32
2023-10-10T21:24:03.645Z,11.80
2023-10-10T21:28:21.310Z,13.27
2023-10-10T21:32:40.157Z,13.10
2023-10-10T21:36:57.644Z,15.15
2023-10-10T21:41:16.398Z,11.52
2023-10-10T21:45:34.362Z,11.38
2023-10-10T21:49:52.804Z,15.50
2023-10-10T21:54:11.621Z,18.00
2023-10-10T22:02:50.675Z,11.90
2023-10-10T22:07:19.430Z,15.00
2023-10-10T22:11:48.796Z,10.60
2023-10-10T22:16:06.095Z,12.23
2023-10-10T22:20:25.202Z,11.35
2023-10-10T22:24:42.834Z,13.90
2023-10-10T22:29:00.331Z,13.57
2023-10-10T22:33:20.072Z,13.88
2023-10-10T22:37:41.307Z,13.85
2023-10-10T22:41:59.253Z,12.43
2023-10-10T22:46:16.638Z,12.50
2023-10-10T22:50:35.864Z,16.02
2023-10-10T22:54:53.918Z,13.77
2023-10-10T22:59:11.241Z,13.27
2023-10-10T23:03:30.167Z,14.85
2023-10-10T23:07:48.816Z,10.20
2023-10-10T23:12:10.174Z,12.70
2023-10-10T23:16:29.615Z,16.25
2023-10-10T23:20:47.266Z,15.88
2023-10-10T23:25:05.788Z,13.60
2023-10-10T23:29:23.896Z,17.42
2023-10-10T23:33:43.220Z,14.63
2023-10-10T23:38:01.849Z,15.48
2023-10-10T23:42:21.192Z,15.27
2023-10-10T23:46:38.780Z,15.52
2023-10-10T23:50:59.942Z,13.55
2023-10-10T23:55:18.174Z,14.75
2023-10-10T23:59:35.565Z,17.37
